createdAt,value
2022-08-19T00:00:55.824Z,20.25
2022-08-19T00:06:05.556Z,20.12
2022-08-19T00:11:18.741Z,20.06
2022-08-19T00:16:26.439Z,20
2022-08-19T00:21:32.276Z,20
2022-08-19T00:26:41.395Z,19.81
2022-08-19T00:31:51.164Z,19.75
2022-08-19T00:37:00.307Z,19.62
2022-08-19T00:42:13.178Z,19.62
2022-08-19T00:47:20.436Z,19.56
2022-08-19T00:52:28.918Z,19.69
2022-08-19T00:57:39.350Z,19.56
2022-08-19T01:03:25.570Z,19.69
2022-08-19T01:08:35.956Z,19.56
2022-08-19T01:13:50.836Z,19.5
2022-08-19T01:19:01.239Z,19.19
2022-08-19T01:24:11.091Z,18.88
2022-08-19T01:29:20.757Z,19
2022-08-19T01:34:30.532Z,19
2022-08-19T01:39:40.982Z,19
2022-08-19T01:45:03.550Z,19
2022-08-19T01:50:01.079Z,19.06
2022-08-19T01:55:26.933Z,19
2022-08-19T02:00:42.455Z,19
2022-08-19T02:05:29.088Z,18.88
2022-08-19T02:10:39.478Z,18.75
2022-08-19T02:15:49.876Z,18.75
2022-08-19T02:20:59.001Z,18.62
2022-08-19T02:26:08.135Z,18.5
2022-08-19T02:31:17.237Z,18.5
2022-08-19T02:36:25.723Z,18.81
2022-08-19T02:41:38.681Z,18.88
2022-08-19T02:46:47.177Z,18.69
2022-08-19T02:51:57.563Z,18.69
2022-08-19T02:57:07.333Z,18.69
2022-08-19T03:02:17.717Z,18.62
2022-08-19T03:07:30.040Z,18.56
2022-08-19T03:12:58.188Z,18.69
2022-08-19T03:18:08.104Z,18.69
2022-08-19T03:23:17.237Z,18.62
2022-08-19T03:28:26.998Z,18.44
2022-08-19T03:33:36.756Z,18.5
2022-08-19T03:38:46.518Z,18.56
2022-08-19T03:43:58.840Z,18.62
2022-08-19T03:49:11.172Z,18.62
2022-08-19T03:54:20.277Z,18.62
2022-08-19T03:59:29.386Z,18.56
2022-08-19T04:04:38.523Z,18.38
2022-08-19T04:09:50.193Z,18.25
2022-08-19T04:14:58.681Z,18.38
2022-08-19T04:20:09.110Z,18.38
2022-08-19T04:25:19.476Z,18.06
2022-08-19T04:30:31.060Z,18.06
2022-08-19T04:35:41.491Z,18.19
2022-08-19T04:40:50.917Z,18.19
2022-08-19T04:46:01.299Z,18.19
2022-08-19T04:51:08.917Z,18.31
2022-08-19T04:56:18.675Z,18.25
2022-08-19T05:01:27.884Z,18.19
2022-08-19T05:06:38.194Z,18.19
2022-08-19T05:11:49.236Z,18.38
2022-08-19T05:17:28.380Z,18.5
2022-08-19T05:22:14.646Z,18.62
2022-08-19T05:27:30.773Z,18.81
2022-08-19T05:32:45.665Z,18.94
2022-08-19T05:38:00.533Z,19.12
2022-08-19T05:43:16.718Z,19.25
2022-08-19T05:48:32.118Z,19.31
2022-08-19T05:53:48.053Z,19.19
2022-08-19T05:59:08.456Z,18.88
2022-08-19T06:03:39.669Z,18.88
2022-08-19T06:08:48.118Z,19
2022-08-19T06:14:00.174Z,19.31
2022-08-19T06:19:07.050Z,19.69
2022-08-19T06:24:19.326Z,20
2022-08-19T06:29:28.444Z,20.25
2022-08-19T06:34:38.229Z,20.31
2022-08-19T06:39:47.478Z,20.44
2022-08-19T06:44:57.766Z,20.5
2022-08-19T06:50:11.901Z,20.69
2022-08-19T06:55:40.923Z,20.88
2022-08-19T07:00:50.679Z,20.88
2022-08-19T07:05:59.798Z,20.94
2022-08-19T07:11:10.937Z,21
2022-08-19T07:16:19.957Z,21.06
2022-08-19T07:21:29.698Z,21.19
2022-08-19T07:26:42.177Z,21.31
2022-08-19T07:31:48.022Z,21.31
2022-08-19T07:36:57.720Z,21.38
2022-08-19T07:42:05.562Z,21.44
2022-08-19T07:47:51.178Z,21.5
2022-08-19T07:52:28.919Z,21.56
2022-08-19T07:57:40.626Z,21.62
2022-08-19T08:02:56.035Z,21.81
2022-08-19T08:08:03.961Z,22
2022-08-19T08:13:13.163Z,22.25
2022-08-19T08:18:22.199Z,22.5
2022-08-19T08:23:30.681Z,22.81
2022-08-19T08:28:39.159Z,23.12
2022-08-19T08:33:58.516Z,23
2022-08-19T08:39:11.528Z,23.25
2022-08-19T08:44:22.110Z,23.19
2022-08-19T08:49:31.019Z,23
2022-08-19T08:54:55.091Z,23.31
2022-08-19T08:59:51.156Z,23.44
2022-08-19T09:05:02.482Z,23.62
2022-08-19T09:10:10.119Z,23.81
2022-08-19T09:15:19.190Z,23.81
2022-08-19T09:20:28.279Z,23.62
2022-08-19T09:25:40.599Z,24
2022-08-19T09:30:49.716Z,23.94
2022-08-19T09:35:58.840Z,24.38
2022-08-19T09:41:09.235Z,24.31
2022-08-19T09:46:18.999Z,24.56
2022-08-19T09:51:27.478Z,24.69
2022-08-19T09:56:40.438Z,24.5
2022-08-19T10:01:49.600Z,24.69
2022-08-19T10:07:05.226Z,24.81
2022-08-19T10:12:30.046Z,24.69
2022-08-19T10:17:33.683Z,24.19
2022-08-19T10:22:51.765Z,24.38
2022-08-19T10:28:05.994Z,24.38
2022-08-19T10:33:38.276Z,24.5
2022-08-19T10:38:56.781Z,24.5
2022-08-19T10:43:53.174Z,24.19
2022-08-19T10:48:24.437Z,24.38
2022-08-19T10:54:35.027Z,24.69
2022-08-19T10:59:48.709Z,25
2022-08-19T11:05:05.124Z,24.88
2022-08-19T11:09:19.434Z,25.12
2022-08-19T11:10:59.453Z,25.12
2022-08-19T11:14:36.279Z,25.12
2022-08-19T11:16:16.289Z,25.12
2022-08-19T11:19:53.720Z,25.44
2022-08-19T11:21:33.733Z,25.44
2022-08-19T11:26:08.212Z,25.56
2022-08-19T11:26:58.500Z,25.56
2022-08-19T11:32:07.794Z,25.25
2022-08-19T11:35:06.427Z,25.25
2022-08-19T11:40:15.565Z,25.31
2022-08-19T11:40:24.906Z,25.31
2022-08-19T11:45:34.848Z,25.38
2022-08-19T11:45:45.118Z,25.38
2022-08-19T11:50:52.279Z,25.56
2022-08-19T11:51:01.701Z,25.56
2022-08-19T11:56:09.721Z,25.81
2022-08-19T11:57:00.787Z,25.81
2022-08-19T12:02:11.320Z,25.69
2022-08-19T12:03:51.410Z,25.69
2022-08-19T12:07:31.955Z,25.5
2022-08-19T12:16:34.084Z,25.88
2022-08-19T12:18:53.021Z,25.88
2022-08-19T12:24:07.931Z,25.88
2022-08-19T12:24:57.932Z,25.88
2022-08-19T12:29:23.583Z,26
2022-08-19T12:30:12.777Z,26
2022-08-19T12:34:38.329Z,26.06
2022-08-19T12:35:55.463Z,26.06
2022-08-19T12:41:05.403Z,26
2022-08-19T12:41:38.292Z,26
2022-08-19T12:46:26.308Z,26.12
2022-08-19T12:52:30.840Z,26.25
2022-08-19T12:53:25.698Z,26.25
2022-08-19T12:58:34.997Z,26.19
2022-08-19T12:58:50.200Z,26.19
2022-08-19T13:03:52.443Z,26
2022-08-19T13:04:02.819Z,26
2022-08-19T13:09:10.517Z,26.06
2022-08-19T13:14:52.881Z,26.06
2022-08-19T13:16:43.109Z,26.06
2022-08-19T13:22:00.305Z,26.19
2022-08-19T13:23:10.020Z,26.19
2022-08-19T13:28:17.395Z,26
2022-08-19T13:28:30.322Z,26
2022-08-19T13:33:38.679Z,26.06
2022-08-19T13:33:50.827Z,26.06
2022-08-19T13:38:58.038Z,26.06
2022-08-19T13:39:09.709Z,26.06
2022-08-19T13:44:18.676Z,26.06
2022-08-19T13:50:11.317Z,25.81
2022-08-19T13:50:38.032Z,25.81
2022-08-19T13:55:47.329Z,25.81
2022-08-19T13:56:07.287Z,25.81
2022-08-19T14:01:07.036Z,26
2022-08-19T14:01:39.285Z,26
2022-08-19T14:06:33.750Z,26.12
2022-08-19T14:06:51.606Z,26.12
2022-08-19T14:11:51.802Z,26.12
2022-08-19T14:15:40.109Z,26.12
2022-08-19T14:20:48.711Z,26.25
2022-08-19T14:21:20.597Z,26.25
2022-08-19T14:26:17.725Z,26.56
2022-08-19T14:27:20.418Z,26.56
2022-08-19T14:32:23.092Z,26.62
2022-08-19T14:32:34.693Z,26.62
2022-08-19T14:37:56.761Z,26.31
2022-08-19T14:39:16.425Z,26.31
2022-08-19T14:44:26.359Z,26.06
2022-08-19T14:44:35.459Z,26.06
2022-08-19T14:49:48.715Z,25.94
2022-08-19T14:49:57.060Z,25.94
2022-08-19T14:55:07.800Z,25.88
2022-08-19T14:55:15.300Z,25.88
2022-08-19T15:00:23.160Z,25.94
2022-08-19T15:00:34.076Z,25.94
2022-08-19T15:06:03.646Z,26.31
2022-08-19T15:06:12.879Z,26.31
2022-08-19T15:11:21.085Z,26.25
2022-08-19T15:11:33.386Z,26.25
2022-08-19T15:16:42.376Z,26.44
2022-08-19T15:18:22.395Z,26.44
2022-08-19T15:22:10.688Z,26.31
2022-08-19T15:23:49.462Z,26.31
2022-08-19T15:27:30.673Z,26.19
2022-08-19T15:29:07.527Z,26.19
2022-08-19T15:33:32.901Z,26.25
2022-08-19T15:34:22.897Z,26.25
2022-08-19T15:38:47.450Z,26.12
2022-08-19T15:39:37.475Z,26.12
2022-08-19T15:44:01.514Z,26.12
2022-08-19T15:49:27.161Z,26.06
2022-08-19T15:50:06.426Z,26.06
2022-08-19T15:55:03.157Z,26.06
2022-08-19T15:55:54.319Z,26.06
2022-08-19T16:00:46.004Z,26.12
2022-08-19T16:06:54.204Z,26.31
2022-08-19T16:07:22.452Z,26.31
2022-08-19T16:12:25.734Z,26.19
2022-08-19T16:18:35.637Z,26.19
2022-08-19T16:18:53.380Z,26.19
2022-08-19T16:24:03.320Z,26.06
2022-08-19T16:25:00.121Z,26.06
2022-08-19T16:30:09.397Z,26.06
2022-08-19T16:31:49.419Z,26.06
2022-08-19T16:36:09.922Z,26
2022-08-19T16:37:26.941Z,26
2022-08-19T16:41:50.989Z,26.06
2022-08-19T16:42:40.971Z,26.06
2022-08-19T16:47:08.599Z,26.12
2022-08-19T16:47:58.604Z,26.12
2022-08-19T16:52:22.616Z,26.19
2022-08-19T16:59:05.732Z,26.31
2022-08-19T16:59:26.020Z,26.31
2022-08-19T17:04:35.319Z,26
2022-08-19T17:04:57.888Z,26
2022-08-19T17:09:55.381Z,25.88
2022-08-19T17:10:21.048Z,25.88
2022-08-19T17:15:14.052Z,25.75
2022-08-19T17:15:30.021Z,25.75
2022-08-19T17:20:37.879Z,25.69
2022-08-19T17:20:47.092Z,25.69
2022-08-19T17:25:54.662Z,25.44
2022-08-19T17:26:05.060Z,25.44
2022-08-19T17:31:13.403Z,25.44
2022-08-19T17:31:24.968Z,25.44
2022-08-19T17:36:33.418Z,25.38
2022-08-19T17:36:47.943Z,25.38
2022-08-19T17:41:55.973Z,25.38
2022-08-19T17:42:46.340Z,25.38
2022-08-19T17:47:56.007Z,25.12
2022-08-19T17:53:57.241Z,25.06
2022-08-19T17:54:39.998Z,25.06
2022-08-19T17:59:36.475Z,24.88
2022-08-19T18:06:29.368Z,24.81
2022-08-19T18:07:19.369Z,24.81
2022-08-19T18:11:47.317Z,24.88
2022-08-19T18:12:34.220Z,24.88
2022-08-19T18:17:07.956Z,24.81
2022-08-19T18:22:59.969Z,24.75
2022-08-19T18:29:14.356Z,24.5
2022-08-19T18:31:35.980Z,24.5
2022-08-19T18:36:14.841Z,24.38
2022-08-19T18:37:07.784Z,24.38
2022-08-19T18:42:16.451Z,24.38
2022-08-19T18:42:31.199Z,24.38
2022-08-19T18:47:37.720Z,24.31
2022-08-19T18:47:47.428Z,24.31
2022-08-19T18:52:55.814Z,24.19
2022-08-19T18:53:04.757Z,24.19
2022-08-19T18:58:12.598Z,24.25
2022-08-19T18:58:36.513Z,24.25
2022-08-19T19:03:44.117Z,24.19
2022-08-19T19:03:56.317Z,24.19
2022-08-19T19:09:03.494Z,23.94
2022-08-19T19:10:43.509Z,23.94
2022-08-19T19:15:38.778Z,23.81
2022-08-19T19:16:28.769Z,23.81
2022-08-19T19:20:39.892Z,23.75
2022-08-19T19:21:34.124Z,23.75
2022-08-19T19:25:56.082Z,23.75
2022-08-19T19:26:46.090Z,23.75
2022-08-19T19:31:11.495Z,23.69
2022-08-19T19:32:00.918Z,23.69
2022-08-19T19:36:32.132Z,23.62
2022-08-19T19:37:18.375Z,23.62
2022-08-19T19:41:50.837Z,23.44
2022-08-19T19:42:33.934Z,23.44
2022-08-19T19:47:26.203Z,23.56
2022-08-19T19:53:24.596Z,23.31
2022-08-19T19:54:40.249Z,23.31
2022-08-19T19:59:51.711Z,23.25
2022-08-19T20:00:35.787Z,23.25
2022-08-19T20:05:44.439Z,23.19
2022-08-19T20:05:54.961Z,23.19
2022-08-19T20:11:02.520Z,23.06
2022-08-19T20:11:15.994Z,23.06
2022-08-19T20:16:23.175Z,23.06
2022-08-19T20:16:33.863Z,23.06
2022-08-19T20:21:39.957Z,23
2022-08-19T20:23:46.124Z,23
2022-08-19T20:28:12.917Z,22.94
2022-08-19T20:29:51.015Z,22.94
2022-08-19T20:34:15.257Z,22.81
2022-08-19T20:35:05.257Z,22.81
2022-08-19T20:39:30.170Z,22.88
2022-08-19T20:44:45.659Z,22.88
2022-08-19T20:45:35.650Z,22.88
2022-08-19T20:50:00.553Z,22.94
2022-08-19T20:50:50.557Z,22.94
2022-08-19T20:55:16.726Z,22.81
2022-08-19T20:56:06.730Z,22.81
2022-08-19T21:00:33.510Z,22.94
2022-08-19T21:01:22.234Z,22.94
2022-08-19T21:05:50.837Z,22.88
2022-08-19T21:06:39.079Z,22.88
2022-08-19T21:11:08.279Z,22.88
2022-08-19T21:11:52.616Z,22.88
2022-08-19T21:16:26.360Z,22.88
2022-08-19T21:17:07.509Z,22.88
2022-08-19T21:21:49.558Z,22.81
2022-08-19T21:22:23.011Z,22.81
2022-08-19T21:27:06.358Z,22.88
2022-08-19T21:27:56.481Z,22.88
2022-08-19T21:33:06.051Z,22.88
2022-08-19T21:33:15.156Z,22.88
2022-08-19T21:38:23.494Z,22.88
2022-08-19T21:38:34.179Z,22.88
2022-08-19T21:43:42.199Z,22.88
2022-08-19T21:44:03.136Z,22.88
2022-08-19T21:49:01.568Z,22.88
2022-08-19T21:49:12.429Z,22.88
2022-08-19T21:54:20.344Z,22.88
2022-08-19T21:54:38.770Z,22.88
2022-08-19T21:59:39.024Z,22.81
2022-08-19T21:59:49.224Z,22.81
2022-08-19T22:04:55.815Z,22.69
2022-08-19T22:10:32.421Z,22.69
2022-08-19T22:15:39.828Z,22.75
2022-08-19T22:22:10.059Z,22.62
2022-08-19T22:32:27.289Z,22.5
2022-08-19T22:40:59.642Z,22.56
2022-08-19T22:46:17.823Z,22.62
2022-08-19T22:51:17.876Z,22.62
2022-08-19T22:56:49.503Z,22.62
2022-08-19T23:02:20.034Z,22.44
2022-08-19T23:07:23.969Z,22.5
2022-08-19T23:12:34.802Z,22.38
2022-08-19T23:17:04.755Z,22.44
2022-08-19T23:22:14.532Z,22.38
2022-08-19T23:27:24.277Z,22.38
2022-08-19T23:32:34.054Z,22.38
2022-08-19T23:37:45.079Z,22.25
2022-08-19T23:42:56.756Z,22.12
2022-08-19T23:48:07.170Z,22.06
2022-08-19T23:53:16.917Z,22
2022-08-19T23:58:27.839Z,21.75
